createdAt,value
2022-12-13T00:00:09.419Z,44.06
2022-12-13T00:02:43.042Z,42.61
2022-12-13T00:05:15.793Z,44.68
2022-12-13T00:07:44.585Z,41.25
2022-12-13T00:10:13.399Z,38.99
2022-12-13T00:12:43.659Z,42.72
2022-12-13T00:15:16.922Z,41.52
2022-12-13T00:17:59.210Z,44.39
2022-12-13T00:20:29.353Z,41.31
2022-12-13T00:22:57.828Z,40.85
2022-12-13T00:25:35.258Z,44.27
2022-12-13T00:28:05.555Z,42.71
2022-12-13T00:30:33.742Z,43.08
2022-12-13T00:33:03.919Z,42.99
2022-12-13T00:35:32.603Z,41.96
2022-12-13T00:38:00.679Z,41.82
2022-12-13T00:40:29.503Z,41.38
2022-12-13T00:43:01.951Z,39.85
2022-12-13T00:45:30.990Z,41.76
2022-12-13T00:47:58.751Z,42.57
2022-12-13T00:50:31.101Z,40.69
2022-12-13T00:53:00.564Z,42.37
2022-12-13T00:55:29.337Z,41.28
2022-12-13T00:57:58.358Z,41.05
2022-12-13T01:00:29.109Z,41.84
2022-12-13T01:02:56.875Z,42.52
2022-12-13T01:06:04.109Z,43.12
2022-12-13T01:08:19.181Z,40.50
2022-12-13T01:10:48.142Z,42.05
2022-12-13T01:13:17.616Z,42.01
2022-12-13T01:15:46.670Z,39.02
2022-12-13T01:18:18.494Z,43.34
2022-12-13T01:21:07.469Z,42.91
2022-12-13T01:23:35.591Z,40.92
2022-12-13T01:26:10.841Z,43.10
2022-12-13T01:28:39.245Z,43.02
2022-12-13T01:31:11.387Z,48.75
2022-12-13T01:33:39.972Z,43.82
2022-12-13T01:36:13.084Z,42.14
2022-12-13T01:38:44.481Z,39.58
2022-12-13T01:41:27.297Z,44.81
2022-12-13T01:44:01.491Z,41.94
2022-12-13T01:46:32.421Z,40.98
2022-12-13T01:49:05.709Z,41.42
2022-12-13T01:51:56.654Z,39.36
2022-12-13T01:54:33.999Z,51.08
2022-12-13T01:57:06.844Z,49.34
2022-12-13T01:59:37.113Z,46.41
2022-12-13T02:02:05.880Z,43.88
2022-12-13T02:04:56.177Z,43.52
2022-12-13T02:07:32.170Z,43.09
2022-12-13T02:10:04.035Z,42.12
2022-12-13T02:12:35.355Z,40.14
2022-12-13T02:15:12.879Z,42.11
2022-12-13T02:17:45.917Z,41.26
2022-12-13T02:20:34.603Z,43.21
2022-12-13T02:23:26.596Z,42.44
2022-12-13T02:26:25.151Z,43.52
2022-12-13T02:29:30.760Z,43.15
2022-12-13T02:32:14.438Z,42.61
2022-12-13T02:34:50.775Z,44.06
2022-12-13T02:37:31.372Z,39.62
2022-12-13T02:40:06.755Z,41.25
2022-12-13T02:42:42.158Z,42.56
2022-12-13T02:45:20.968Z,42.21
2022-12-13T02:47:53.176Z,44.29
2022-12-13T02:50:23.784Z,43.42
2022-12-13T02:52:52.793Z,42.47
2022-12-13T02:55:23.927Z,41.53
2022-12-13T02:57:54.048Z,41.46
2022-12-13T03:00:49.649Z,44.01
2022-12-13T03:03:48.412Z,41.25
2022-12-13T03:06:41.143Z,45.93
2022-12-13T03:09:27.001Z,46.78
2022-12-13T03:12:31.962Z,44.05
2022-12-13T03:15:35.162Z,42.54
2022-12-13T03:18:18.145Z,43.10
2022-12-13T03:20:55.236Z,42.96
2022-12-13T03:23:23.940Z,41.31
2022-12-13T03:25:57.379Z,42.46
2022-12-13T03:28:25.284Z,40.83
2022-12-13T03:30:52.951Z,42.80
2022-12-13T03:33:20.623Z,43.81
2022-12-13T03:35:48.480Z,42.80
2022-12-13T03:38:21.903Z,41.75
2022-12-13T03:40:58.513Z,42.46
2022-12-13T03:43:26.634Z,42.73
2022-12-13T03:45:55.183Z,41.57
2022-12-13T03:48:23.775Z,42.69
2022-12-13T03:50:53.199Z,41.34
2022-12-13T03:53:32.557Z,42.95
2022-12-13T03:56:06.835Z,41.54
2022-12-13T03:58:37.627Z,42.19
2022-12-13T04:01:10.909Z,40.39
2022-12-13T04:03:41.895Z,43.50
2022-12-13T04:06:10.910Z,41.68
2022-12-13T04:08:39.956Z,43.00
2022-12-13T04:11:26.834Z,41.83
2022-12-13T04:13:55.343Z,41.66
2022-12-13T04:16:24.277Z,41.85
2022-12-13T04:18:52.300Z,42.24
2022-12-13T04:21:20.039Z,42.82
2022-12-13T04:23:47.793Z,41.44
2022-12-13T04:26:15.654Z,41.33
2022-12-13T04:28:43.244Z,40.58
2022-12-13T04:31:10.955Z,42.54
2022-12-13T04:33:38.651Z,42.16
2022-12-13T04:36:06.697Z,43.22
2022-12-13T04:38:34.305Z,41.69
2022-12-13T04:41:13.865Z,41.83
2022-12-13T04:43:41.570Z,41.59
2022-12-13T04:46:09.286Z,42.73
2022-12-13T04:48:37.032Z,44.58
2022-12-13T04:51:04.655Z,43.52
2022-12-13T04:53:32.549Z,44.45
2022-12-13T04:56:03.211Z,43.73
2022-12-13T04:58:31.571Z,44.71
2022-12-13T05:00:59.353Z,44.13
2022-12-13T05:03:29.036Z,44.17
2022-12-13T05:05:57.204Z,46.56
2022-12-13T05:08:24.926Z,45.85
2022-12-13T05:10:54.498Z,42.44
2022-12-13T05:13:22.070Z,43.10
2022-12-13T05:15:56.707Z,41.97
2022-12-13T05:18:24.531Z,42.10
2022-12-13T05:20:52.354Z,40.11
2022-12-13T05:23:22.189Z,40.35
2022-12-13T05:25:51.667Z,38.69
2022-12-13T05:28:28.358Z,38.40
2022-12-13T05:30:59.663Z,37.00
2022-12-13T05:33:27.409Z,36.31
2022-12-13T05:35:59.367Z,33.81
2022-12-13T05:38:29.647Z,33.20
2022-12-13T05:40:57.437Z,34.46
2022-12-13T05:43:42.179Z,33.14
2022-12-13T05:46:12.849Z,31.40
2022-12-13T05:48:41.450Z,31.59
2022-12-13T05:51:11.933Z,31.73
2022-12-13T05:53:42.114Z,28.97
2022-12-13T05:56:11.688Z,30.20
2022-12-13T05:58:40.810Z,28.85
2022-12-13T06:01:11.399Z,28.35
2022-12-13T06:03:40.257Z,27.30
2022-12-13T06:06:09.776Z,26.32
2022-12-13T06:08:37.762Z,26.21
2022-12-13T06:11:10.970Z,24.70
2022-12-13T06:13:43.263Z,25.05
2022-12-13T06:16:21.773Z,24.53
2022-12-13T06:19:02.739Z,23.95
2022-12-13T06:21:41.769Z,23.37
2022-12-13T06:24:22.400Z,23.26
2022-12-13T06:26:51.191Z,22.28
2022-12-13T06:29:23.199Z,22.59
2022-12-13T06:32:02.293Z,21.81
2022-12-13T06:34:36.135Z,21.67
2022-12-13T06:37:11.279Z,20.92
2022-12-13T06:39:39.274Z,21.34
2022-12-13T06:42:11.104Z,21.15
2022-12-13T06:44:38.765Z,20.05
2022-12-13T06:47:11.808Z,20.84
2022-12-13T06:49:44.233Z,20.90
2022-12-13T06:52:14.542Z,20.72
2022-12-13T06:54:43.412Z,20.96
2022-12-13T06:57:14.593Z,20.97
2022-12-13T06:59:42.992Z,21.79
2022-12-13T07:02:24.424Z,21.68
2022-12-13T07:04:53.832Z,21.47
2022-12-13T07:07:21.891Z,22.43
2022-12-13T07:09:49.576Z,22.28
2022-12-13T07:12:18.966Z,23.01
2022-12-13T07:14:46.575Z,22.86
2022-12-13T07:17:32.640Z,23.03
2022-12-13T07:20:05.025Z,22.69
2022-12-13T07:22:35.002Z,22.83
2022-12-13T07:25:05.538Z,22.53
2022-12-13T07:27:34.405Z,23.10
2022-12-13T07:30:02.468Z,23.19
2022-12-13T07:32:31.587Z,23.48
2022-12-13T07:34:59.289Z,23.63
2022-12-13T07:37:29.342Z,24.22
2022-12-13T07:40:04.019Z,24.22
2022-12-13T07:42:32.650Z,24.03
2022-12-13T07:45:00.747Z,24.46
2022-12-13T07:47:32.479Z,24.92
2022-12-13T07:50:01.662Z,24.92
2022-12-13T07:52:31.425Z,25.61
2022-12-13T07:54:59.237Z,25.78
2022-12-13T07:57:27.429Z,33.19
2022-12-13T07:59:55.108Z,28.83
2022-12-13T08:02:22.926Z,26.95
2022-12-13T08:04:54.627Z,26.92
2022-12-13T08:07:23.159Z,26.99
2022-12-13T08:09:53.011Z,27.69
2022-12-13T08:12:22.439Z,27.34
2022-12-13T08:14:53.326Z,27.50
2022-12-13T08:17:21.458Z,27.83
2022-12-13T08:19:49.201Z,27.80
2022-12-13T08:22:24.196Z,27.65
2022-12-13T08:24:52.359Z,27.69
2022-12-13T08:27:20.082Z,28.14
2022-12-13T08:29:49.364Z,28.62
2022-12-13T08:32:17.562Z,28.44
2022-12-13T08:34:46.128Z,28.72
2022-12-13T08:37:14.252Z,28.93
2022-12-13T08:39:42.125Z,28.75
2022-12-13T08:42:18.831Z,29.31
2022-12-13T08:44:52.972Z,29.72
2022-12-13T08:47:25.536Z,29.23
2022-12-13T08:50:04.558Z,29.07
2022-12-13T08:52:40.499Z,28.72
2022-12-13T08:55:11.432Z,29.71
2022-12-13T08:57:41.008Z,29.69
2022-12-13T09:00:12.591Z,29.72
2022-12-13T09:02:40.440Z,29.47
2022-12-13T09:05:09.934Z,30.10
2022-12-13T09:07:41.391Z,29.88
2022-12-13T09:10:27.082Z,30.10
2022-12-13T09:13:02.464Z,29.82
2022-12-13T09:15:46.139Z,29.87
2022-12-13T09:18:15.163Z,29.96
2022-12-13T09:20:52.439Z,30.89
2022-12-13T09:23:24.077Z,30.83
2022-12-13T09:25:56.597Z,30.86
2022-12-13T09:28:37.304Z,30.66
2022-12-13T09:31:14.568Z,31.17
2022-12-13T09:33:43.279Z,30.76
2022-12-13T09:36:17.791Z,31.19
2022-12-13T09:38:46.117Z,31.55
2022-12-13T09:41:20.461Z,31.42
2022-12-13T09:44:01.372Z,31.65
2022-12-13T09:46:44.190Z,31.24
2022-12-13T09:49:23.618Z,31.13
2022-12-13T09:52:11.797Z,31.11
2022-12-13T09:54:48.729Z,31.20
2022-12-13T09:57:35.023Z,31.22
2022-12-13T10:00:07.473Z,31.11
2022-12-13T10:02:52.205Z,31.72
2022-12-13T10:05:34.136Z,31.72
2022-12-13T10:08:21.207Z,31.32
2022-12-13T10:10:51.697Z,32.28
2022-12-13T10:13:26.030Z,31.98
2022-12-13T10:16:08.555Z,32.20
2022-12-13T10:18:39.449Z,32.41
2022-12-13T10:21:36.625Z,32.18
2022-12-13T10:24:31.450Z,32.58
2022-12-13T10:27:15.895Z,32.06
2022-12-13T10:30:13.131Z,32.91
2022-12-13T10:32:56.092Z,32.37
2022-12-13T10:35:28.580Z,32.15
2022-12-13T10:37:58.597Z,32.80
2022-12-13T10:40:33.435Z,32.36
2022-12-13T10:43:15.673Z,32.67
2022-12-13T10:45:59.611Z,32.73
2022-12-13T10:48:50.304Z,33.07
2022-12-13T10:51:21.177Z,32.57
2022-12-13T10:53:50.230Z,33.47
2022-12-13T10:56:23.395Z,32.80
2022-12-13T10:59:23.378Z,33.29
2022-12-13T11:01:51.121Z,32.87
2022-12-13T11:04:29.616Z,33.65
2022-12-13T11:07:00.622Z,33.43
2022-12-13T11:09:39.208Z,32.99
2022-12-13T11:12:21.414Z,33.56
2022-12-13T11:15:01.053Z,33.33
2022-12-13T11:17:31.776Z,33.07
2022-12-13T11:20:04.612Z,33.83
2022-12-13T11:22:38.295Z,34.60
2022-12-13T11:25:19.998Z,33.76
2022-12-13T11:28:37.570Z,33.71
2022-12-13T11:31:28.108Z,34.13
2022-12-13T11:33:58.437Z,33.63
2022-12-13T11:36:58.385Z,34.21
2022-12-13T11:39:35.833Z,34.63
2022-12-13T11:42:12.397Z,34.52
2022-12-13T11:45:04.345Z,34.78
2022-12-13T11:47:40.941Z,34.89
2022-12-13T11:50:32.699Z,35.51
2022-12-13T11:53:09.838Z,35.37
2022-12-13T11:55:44.893Z,35.31
2022-12-13T11:59:10.130Z,35.73
2022-12-13T12:01:53.816Z,36.32
2022-12-13T12:04:32.629Z,36.18
2022-12-13T12:10:36.821Z,36.14
2022-12-13T12:13:29.042Z,36.66
2022-12-13T12:16:15.153Z,37.43
2022-12-13T12:18:42.634Z,37.63
2022-12-13T12:22:12.049Z,37.92
2022-12-13T12:24:53.927Z,37.96
2022-12-13T12:27:31.334Z,38.03
2022-12-13T12:30:09.478Z,38.49
2022-12-13T12:33:00.327Z,38.99
2022-12-13T12:35:49.647Z,39.21
2022-12-13T12:38:35.815Z,39.10
2022-12-13T12:41:32.374Z,38.80
2022-12-13T12:44:20.983Z,39.26
2022-12-13T12:47:08.770Z,39.35
2022-12-13T12:49:47.046Z,39.63
2022-12-13T12:52:46.228Z,39.40
2022-12-13T12:55:41.941Z,40.04
2022-12-13T12:58:31.470Z,40.25
2022-12-13T13:01:25.373Z,39.97
2022-12-13T13:04:01.527Z,40.16
2022-12-13T13:06:41.422Z,40.61
2022-12-13T13:09:11.905Z,40.56
2022-12-13T13:11:43.027Z,40.73
2022-12-13T13:14:26.918Z,40.57
2022-12-13T13:16:56.101Z,40.82
2022-12-13T13:19:32.842Z,41.71
2022-12-13T13:22:01.897Z,41.16
2022-12-13T13:24:33.100Z,41.80
2022-12-13T13:27:09.907Z,41.65
2022-12-13T13:29:43.873Z,42.07
2022-12-13T13:32:28.062Z,42.70
2022-12-13T13:35:29.438Z,42.65
2022-12-13T13:37:59.629Z,43.01
2022-12-13T13:40:39.428Z,43.56
2022-12-13T13:43:06.977Z,43.00
2022-12-13T13:45:51.226Z,43.40
2022-12-13T13:48:37.309Z,43.37
2022-12-13T13:51:13.840Z,43.56
2022-12-13T13:54:23.166Z,44.00
2022-12-13T13:58:07.559Z,43.93
2022-12-13T14:00:39.084Z,44.50
2022-12-13T14:03:35.079Z,44.74
2022-12-13T14:06:24.615Z,45.02
2022-12-13T14:09:27.293Z,45.27
2022-12-13T14:12:15.734Z,45.42
2022-12-13T14:15:24.074Z,45.66
2022-12-13T14:18:27.068Z,45.98
2022-12-13T14:21:15.936Z,46.13
2022-12-13T14:24:18.289Z,46.56
2022-12-13T14:26:51.537Z,46.88
2022-12-13T14:29:31.946Z,46.97
2022-12-13T14:32:00.078Z,47.04
2022-12-13T14:34:33.289Z,47.08
2022-12-13T14:37:06.725Z,47.48
2022-12-13T14:39:39.142Z,46.83
2022-12-13T14:42:30.620Z,47.45
2022-12-13T14:45:25.557Z,47.74
2022-12-13T14:47:55.073Z,47.03
2022-12-13T14:50:26.136Z,47.06
2022-12-13T14:52:56.509Z,46.78
2022-12-13T14:55:36.739Z,46.35
2022-12-13T14:58:18.381Z,46.43
2022-12-13T15:00:47.140Z,46.62
2022-12-13T15:03:28.694Z,46.72
2022-12-13T15:06:01.050Z,45.90
2022-12-13T15:08:31.463Z,45.67
2022-12-13T15:11:08.085Z,45.89
2022-12-13T15:13:47.464Z,45.09
2022-12-13T15:16:35.444Z,45.38
2022-12-13T15:19:31.331Z,44.79
2022-12-13T15:22:13.621Z,45.23
2022-12-13T15:24:49.373Z,44.48
2022-12-13T15:27:24.720Z,45.01
2022-12-13T15:29:54.717Z,44.36
2022-12-13T15:32:23.610Z,44.56
2022-12-13T15:34:52.665Z,44.62
2022-12-13T15:37:33.469Z,45.50
2022-12-13T15:40:09.556Z,45.63
2022-12-13T15:42:39.492Z,45.56
2022-12-13T15:45:19.245Z,45.73
2022-12-13T15:47:48.223Z,45.50
2022-12-13T15:50:37.555Z,45.80
2022-12-13T15:53:29.149Z,45.56
2022-12-13T15:56:00.342Z,46.23
2022-12-13T15:58:36.821Z,46.33
2022-12-13T16:01:06.226Z,46.23
2022-12-13T16:03:47.483Z,46.84
2022-12-13T16:06:22.527Z,46.16
2022-12-13T16:09:03.213Z,45.40
2022-12-13T16:11:34.019Z,45.10
2022-12-13T16:14:49.409Z,45.36
2022-12-13T16:17:29.758Z,45.94
2022-12-13T16:20:07.681Z,46.43
2022-12-13T16:22:37.024Z,46.13
2022-12-13T16:25:04.836Z,46.02
2022-12-13T16:27:34.663Z,46.25
2022-12-13T16:30:02.361Z,46.41
2022-12-13T16:32:36.143Z,46.40
2022-12-13T16:35:17.948Z,46.09
2022-12-13T16:37:47.940Z,45.73
2022-12-13T16:40:31.357Z,46.57
2022-12-13T16:43:05.192Z,45.69
2022-12-13T16:45:44.587Z,45.46
2022-12-13T16:48:13.379Z,45.17
2022-12-13T16:50:46.470Z,45.74
2022-12-13T16:53:17.457Z,45.56
2022-12-13T16:55:58.015Z,45.09
2022-12-13T16:58:26.603Z,45.03
2022-12-13T17:00:58.879Z,44.77
2022-12-13T17:03:28.181Z,43.89
2022-12-13T17:05:58.675Z,44.09
2022-12-13T17:08:26.809Z,43.93
2022-12-13T17:10:57.846Z,43.97
2022-12-13T17:13:27.249Z,43.64
2022-12-13T17:15:59.797Z,43.46
2022-12-13T17:18:27.730Z,44.31
2022-12-13T17:20:58.366Z,44.25
2022-12-13T17:23:27.541Z,44.39
2022-12-13T17:25:57.839Z,44.61
2022-12-13T17:28:26.001Z,44.54
2022-12-13T17:30:55.009Z,44.63
2022-12-13T17:33:23.158Z,45.34
2022-12-13T17:35:51.183Z,45.06
2022-12-13T17:38:18.675Z,44.92
2022-12-13T17:40:54.392Z,44.76
2022-12-13T17:43:33.089Z,44.94
2022-12-13T17:46:05.377Z,45.08
2022-12-13T17:48:39.791Z,44.78
2022-12-13T17:51:09.581Z,44.87
2022-12-13T17:53:39.827Z,44.68
2022-12-13T17:56:09.778Z,45.14
2022-12-13T17:58:37.982Z,45.18
2022-12-13T18:01:16.932Z,45.49
2022-12-13T18:03:45.258Z,44.26
2022-12-13T18:06:12.894Z,44.76
2022-12-13T18:08:42.695Z,44.85
2022-12-13T18:13:59.518Z,44.86
2022-12-13T18:16:33.941Z,44.89
2022-12-13T18:19:06.632Z,44.33
2022-12-13T18:21:35.795Z,44.50
2022-12-13T18:24:03.921Z,43.88
2022-12-13T18:26:31.499Z,43.20
2022-12-13T18:28:59.005Z,43.36
2022-12-13T18:31:27.013Z,42.78
2022-12-13T18:33:55.143Z,42.97
2022-12-13T18:36:25.134Z,42.45
2022-12-13T18:38:53.825Z,41.97
2022-12-13T18:41:24.530Z,42.47
2022-12-13T18:44:03.264Z,43.12
2022-12-13T18:46:32.916Z,42.81
2022-12-13T18:49:01.398Z,42.58
2022-12-13T18:51:29.163Z,43.57
2022-12-13T18:53:56.929Z,44.56
2022-12-13T18:56:26.047Z,44.21
2022-12-13T18:58:55.250Z,45.01
2022-12-13T19:01:23.250Z,45.59
2022-12-13T19:03:51.577Z,45.67
2022-12-13T19:06:29.480Z,46.82
2022-12-13T19:08:59.092Z,46.47
2022-12-13T19:11:28.401Z,47.35
2022-12-13T19:13:56.287Z,47.15
2022-12-13T19:16:25.396Z,47.62
2022-12-13T19:18:53.310Z,47.90
2022-12-13T19:21:22.332Z,48.53
2022-12-13T19:23:56.400Z,48.07
2022-12-13T19:26:27.771Z,47.92
2022-12-13T19:28:57.195Z,48.29
2022-12-13T19:31:31.023Z,47.76
2022-12-13T19:34:01.882Z,48.10
2022-12-13T19:36:31.040Z,48.54
2022-12-13T19:38:59.169Z,48.19
2022-12-13T19:41:27.395Z,48.38
2022-12-13T19:43:54.943Z,48.18
2022-12-13T19:46:22.582Z,48.49
2022-12-13T19:48:50.531Z,48.07
2022-12-13T19:51:18.385Z,47.98
2022-12-13T19:53:46.533Z,47.74
2022-12-13T19:56:17.900Z,47.23
2022-12-13T19:58:47.054Z,47.17
2022-12-13T20:01:15.429Z,46.93
2022-12-13T20:03:45.924Z,47.28
2022-12-13T20:06:17.153Z,47.24
2022-12-13T20:08:45.581Z,46.69
2022-12-13T20:11:16.364Z,46.93
2022-12-13T20:13:43.938Z,45.97
2022-12-13T20:16:23.362Z,46.59
2022-12-13T20:18:59.375Z,46.96
2022-12-13T20:21:28.023Z,46.86
2022-12-13T20:23:55.637Z,47.00
2022-12-13T20:26:25.380Z,47.33
2022-12-13T20:28:53.114Z,47.26
2022-12-13T20:31:24.309Z,47.38
2022-12-13T20:33:57.561Z,47.29
2022-12-13T20:36:28.038Z,47.71
2022-12-13T20:38:57.350Z,47.64
2022-12-13T20:41:27.003Z,47.29
2022-12-13T20:43:56.024Z,47.19
2022-12-13T20:46:24.944Z,47.51
2022-12-13T20:48:53.220Z,47.01
2022-12-13T20:51:22.949Z,47.37
2022-12-13T20:53:52.528Z,47.50
2022-12-13T20:56:25.758Z,47.54
2022-12-13T20:58:53.505Z,48.46
2022-12-13T21:01:30.848Z,49.17
2022-12-13T21:04:00.726Z,48.89
2022-12-13T21:06:30.157Z,49.12
2022-12-13T21:09:08.272Z,49.22
2022-12-13T21:11:37.685Z,49.50
2022-12-13T21:14:21.458Z,49.89
2022-12-13T21:16:52.170Z,48.17
2022-12-13T21:19:27.657Z,48.93
2022-12-13T21:21:56.920Z,48.56
2022-12-13T21:24:26.233Z,47.69
2022-12-13T21:26:56.750Z,47.25
2022-12-13T21:29:24.835Z,46.56
2022-12-13T21:31:53.666Z,46.53
2022-12-13T21:34:22.565Z,46.32
2022-12-13T21:36:55.018Z,45.58
2022-12-13T21:39:28.165Z,46.53
2022-12-13T21:41:56.925Z,45.15
2022-12-13T21:44:24.508Z,45.27
2022-12-13T21:47:11.862Z,44.87
2022-12-13T21:49:40.150Z,44.53
2022-12-13T21:52:07.669Z,44.51
2022-12-13T21:54:35.115Z,44.13
2022-12-13T21:57:20.853Z,43.75
2022-12-13T21:59:48.320Z,43.91
2022-12-13T22:02:18.850Z,43.23
2022-12-13T22:04:50.742Z,43.26
2022-12-13T22:07:19.585Z,43.04
2022-12-13T22:09:48.400Z,42.14
2022-12-13T22:12:29.952Z,42.88
2022-12-13T22:14:57.467Z,42.54
2022-12-13T22:17:33.027Z,42.36
2022-12-13T22:20:03.221Z,42.51
2022-12-13T22:22:32.030Z,42.89
2022-12-13T22:24:59.608Z,42.76
2022-12-13T22:27:27.101Z,43.89
2022-12-13T22:29:57.406Z,43.11
2022-12-13T22:32:27.762Z,43.65
2022-12-13T22:34:55.843Z,42.64
2022-12-13T22:37:23.880Z,42.47
2022-12-13T22:39:51.579Z,42.84
2022-12-13T22:42:19.976Z,42.96
2022-12-13T22:44:48.020Z,42.72
2022-12-13T22:47:15.622Z,43.22
2022-12-13T22:49:43.106Z,42.73
2022-12-13T22:52:10.639Z,42.94
2022-12-13T22:54:38.153Z,43.18
2022-12-13T22:57:07.458Z,43.90
2022-12-13T22:59:34.981Z,43.06
2022-12-13T23:02:04.235Z,42.23
2022-12-13T23:04:34.682Z,42.86
2022-12-13T23:07:02.201Z,42.46
2022-12-13T23:09:30.986Z,42.11
2022-12-13T23:12:16.784Z,42.03
2022-12-13T23:14:44.208Z,41.92
2022-12-13T23:17:11.809Z,41.15
2022-12-13T23:19:50.944Z,41.46
2022-12-13T23:22:25.967Z,41.50
2022-12-13T23:24:53.987Z,41.08
2022-12-13T23:27:23.518Z,40.98
2022-12-13T23:29:51.055Z,40.48
2022-12-13T23:32:18.559Z,41.24
2022-12-13T23:34:46.035Z,41.04
2022-12-13T23:37:13.997Z,40.45
2022-12-13T23:39:41.878Z,41.62
2022-12-13T23:42:09.506Z,41.31
2022-12-13T23:44:37.028Z,40.95
2022-12-13T23:47:04.542Z,41.07
2022-12-13T23:49:32.639Z,41.09
2022-12-13T23:52:00.102Z,41.48
2022-12-13T23:54:27.593Z,40.81
2022-12-13T23:56:55.118Z,40.57
2022-12-13T23:59:26.161Z,40.74
